• Join FlightAware (Why Join?)
  • Login
  • US Flag 
05:44PM EST


 

Airport Tracker/Info


-or-


 

Live Flight TrackerFlight Track Log ✈ GLA21F ✈ 10-May-2013 ✈ KFMN - KDEN

Flight Track Log - Related Links

Times and Time Zones

All times are in EDT time to prevent confusion due to time zone crossing. See the GLA21F flight status page for this flight to view local times or setup timezone preferences in your user account.

Time Position Orientation Groundspeed Altitude Reporting Facility
EDT Latitude Longitude Course Direction KTS MPH feet Rate Location/Type
08:32AM 36.7400 -108.2478 41° Northeast 200 230 5,900  Level Denver Center
08:33AM 36.7772 -108.2658 339° North 183 211 7,300 1,680 Climbing Denver Center
08:34AM 36.7731 -108.1983 94° East 178 205 9,300 1,620 Climbing Denver Center
08:35AM 36.7636 -108.1394 101° East 179 206 10,600 1,320 Climbing Denver Center
08:36AM 37.1048 -107.8369 41° Northeast  Level Estimated
08:36AM 36.7622 -108.0792 92° East 187 215 12,100  Level Denver Center
08:37AM 37.1566 -107.7804 41° Northeast  Level Estimated
08:37AM 36.8164 -108.0567 18° North 184 212 13,900  Level Denver Center
08:38AM 37.2084 -107.7239 41° Northeast  Level Estimated
08:38AM 36.8622 -108.0375 18° North 182 209 15,100  Level Denver Center
08:39AM 36.9094 -108.0178 18° North 184 212 16,300 1,260 Climbing Denver Center
08:40AM 36.9594 -107.9839 28° Northeast 184 212 17,700 1,020 Climbing Denver Center
08:41AM 37.0014 -107.9489 34° Northeast 187 215 18,400 780 Climbing Denver Center
08:42AM 37.0494 -107.9194 26° Northeast 194 223 19,300 900 Climbing Denver Center
08:43AM 37.1083 -107.8919 20° North 200 230 20,300 900 Climbing Denver Center
08:44AM 37.1583 -107.8658 23° Northeast 204 235 21,200 840 Climbing Denver Center
08:45AM 37.2075 -107.8392 23° Northeast 202 232 22,000 840 Climbing Denver Center
08:46AM 37.2622 -107.8000 30° Northeast 202 232 23,000 900 Climbing Denver Center
08:47AM 37.3144 -107.7722 23° Northeast 210 242 23,900 780 Climbing Denver Center
08:48AM 37.3653 -107.7481 21° North 206 237 24,700 540 Climbing Denver Center
08:49AM 37.4258 -107.7122 25° Northeast 212 244 25,100 180 Climbing Denver Center
08:50AM 37.4833 -107.6783 25° Northeast 234 269 25,100  Level Denver Center
08:51AM 37.5447 -107.6469 22° Northeast 245 282 25,100  Level Denver Center
08:52AM 37.6131 -107.5994 29° Northeast 251 289 25,100  Level Denver Center
08:53AM 37.6733 -107.5600 27° Northeast 253 291 25,100  Level Denver Center
08:54AM 37.7322 -107.5197 28° Northeast 251 289 25,100 -60 Level Denver Center
08:56AM 37.7972 -107.4647 34° Northeast 251 289 25,000  Descending Denver Center
08:57AM 37.8619 -107.4078 35° Northeast 252 290 25,100  Climbing Denver Center
08:58AM 37.9289 -107.3558 31° Northeast 252 290 25,100  Level Denver Center
08:59AM 37.9842 -107.3072 35° Northeast 253 291 25,100  Level Denver Center
09:00AM 38.0447 -107.2667 28° Northeast 255 293 25,100 -60 Level Denver Center
09:01AM 38.1164 -107.2419 15° North 257 296 25,000 -60 Descending Denver Center
09:02AM 38.1817 -107.2144 18° North 258 297 25,000  Level Denver Center
09:03AM 38.2492 -107.1767 24° Northeast 253 291 25,100  Climbing Denver Center
09:04AM 38.3111 -107.1353 28° Northeast 250 288 25,100  Level Denver Center
09:05AM 38.3708 -107.0858 33° Northeast 253 291 25,100 -60 Level Denver Center
09:06AM 38.4328 -107.0411 29° Northeast 255 293 25,000 -60 Descending Denver Center
09:07AM 38.4822 -106.9753 46° Northeast 262 302 25,000  Level Denver Center
09:08AM 38.5053 -106.8875 71° East 263 303 25,000  Level Denver Center
09:09AM 38.5294 -106.8003 70° East 261 300 25,000  Level Denver Center
09:10AM 38.5525 -106.7106 72° East 264 304 25,100  Climbing Denver Center
09:11AM 38.5806 -106.6233 68° East 265 305 25,000 -60 Descending Denver Center
09:12AM 38.6083 -106.5378 67° East 263 303 25,000  Level Denver Center
09:13AM 38.6392 -106.4325 69° East 263 303 25,000  Level Denver Center
09:14AM 38.6658 -106.3447 69° East 264 304 25,000  Level Denver Center
09:15AM 38.6975 -106.2603 64° Northeast 265 305 25,000  Level Denver Center
09:16AM 38.7261 -106.1747 67° East 263 303 25,100 -360 Climbing Denver Center
09:17AM 38.7653 -106.0931 58° Northeast 260 299 24,300 -1,200 Descending Denver Center
09:18AM 38.8089 -106.0289 49° Northeast 252 290 22,700 -1,800 Descending Denver Center
09:19AM 38.8464 -105.9583 56° Northeast 250 288 20,700 -2,160 Descending Denver Center
09:20AM 38.8892 -105.8867 53° Northeast 248 285 18,400 -1,800 Descending Denver Center
09:21AM 38.9344 -105.8086 53° Northeast 255 293 17,100 -1,200 Descending Denver Center
09:22AM 38.9781 -105.7392 51° Northeast 259 298 16,000 -600 Descending Denver Center
09:23AM 39.0308 -105.6625 48° Northeast 257 296 16,000  Level Denver Center
09:24AM 39.0753 -105.5936 50° Northeast 260 299 16,000 -60 Level Denver Center
09:25AM 39.1247 -105.5086 53° Northeast 262 302 15,900  Descending Denver Center
09:26AM 39.1664 -105.4386 52° Northeast 261 300 16,000  Climbing Denver Center
09:27AM 39.2114 -105.3656 52° Northeast 260 299 16,000 -180 Level Denver Center
09:28AM 39.2578 -105.2933 50° Northeast 262 302 15,700 -900 Descending Denver Center
09:29AM 39.3081 -105.2217 48° Northeast 251 289 14,200 -1,380 Descending Denver Center
09:30AM 39.3611 -105.1650 40° Northeast 249 287 13,000 -600 Descending Denver Center
09:31AM 39.4139 -105.1047 41° Northeast 253 291 13,000  Level Denver Center
09:32AM 39.4694 -105.0500 37° Northeast 252 290 13,000  Level Denver Center
09:33AM 39.5242 -104.9925 39° Northeast 253 291 13,100  Climbing Denver Center
09:34AM 39.5819 -104.9275 41° Northeast 256 295 13,000 -60 Descending Denver Center
09:35AM 39.6361 -104.8633 42° Northeast 263 303 13,000  Level Denver Center
09:36AM 39.6886 -104.8019 42° Northeast 257 296 13,000 -180 Level Denver Center
09:37AM 39.7422 -104.7439 40° Northeast 252 290 12,700 -840 Descending Denver Center
09:38AM 39.7783 -104.6633 60° Northeast 255 293 11,300 -840 Descending Denver Center
09:39AM 39.7739 -104.5725 94° East 254 292 11,000 -600 Descending Denver Center
09:40AM 39.7808 -104.4994 83° East 214 246 10,100 -1,560 Descending Denver Center
09:41AM 39.8364 -104.4942 North 206 237 7,900 -1,740 Descending Denver Center
09:42AM 39.8736 -104.5342 320° Northwest 172 198 6,600 -1,140 Descending Denver Center
09:43AM 39.8833 -104.5667 291° West 168 193 6,100 -600 Descending Denver TRACON
09:44AM 39.8772 -104.6400 264° West 145 167 5,400 -540 Descending Denver Center
09:46AM 39.8500 -104.6667 277° West  Level FlightAware Approximate
09:53AM 39.8617 -104.6732 277° West  Level Estimated
09:54AM 39.8617 -104.6732 277° West  Level Estimated
09:55AM 39.8617 -104.6732 277° West  Level Estimated